createdAt,value
2018-12-31T00:01:09.444Z,3.82
2018-12-31T00:03:38.856Z,3.82
2018-12-31T00:06:07.958Z,3.76
2018-12-31T00:08:37.364Z,3.75
2018-12-31T00:11:06.877Z,3.76
2018-12-31T00:13:36.424Z,3.77
2018-12-31T00:16:05.819Z,3.76
2018-12-31T00:18:35.265Z,3.79
2018-12-31T00:21:04.635Z,3.89
2018-12-31T00:23:34.152Z,3.90
2018-12-31T00:26:03.335Z,3.91
2018-12-31T00:28:32.914Z,4.03
2018-12-31T00:31:02.534Z,4.01
2018-12-31T00:33:31.733Z,4.04
2018-12-31T00:36:00.924Z,4.13
2018-12-31T00:38:30.050Z,4.16
2018-12-31T00:40:59.234Z,4.17
2018-12-31T00:43:28.641Z,4.23
2018-12-31T00:45:57.738Z,4.20
2018-12-31T00:48:26.885Z,4.22
2018-12-31T00:50:56.311Z,4.22
2018-12-31T00:53:25.693Z,4.18
2018-12-31T00:55:54.823Z,4.21
2018-12-31T00:58:25.118Z,4.25
2018-12-31T01:00:54.737Z,4.30
2018-12-31T01:03:24.360Z,4.38
2018-12-31T01:05:53.455Z,4.39
2018-12-31T01:08:22.589Z,4.37
2018-12-31T01:10:51.588Z,4.40
2018-12-31T01:13:21.193Z,4.39
2018-12-31T01:15:50.393Z,4.35
2018-12-31T01:18:19.570Z,4.35
2018-12-31T01:20:48.787Z,4.41
2018-12-31T01:23:18.271Z,4.45
2018-12-31T01:25:47.773Z,4.44
2018-12-31T01:28:17.193Z,4.54
2018-12-31T01:30:46.481Z,4.51
2018-12-31T01:33:15.669Z,4.51
2018-12-31T01:35:44.793Z,4.52
2018-12-31T01:38:14.202Z,4.49
2018-12-31T01:40:43.620Z,4.59
2018-12-31T01:43:12.801Z,4.52
2018-12-31T01:45:42.240Z,4.59
2018-12-31T01:48:11.396Z,4.59
2018-12-31T01:50:40.515Z,4.56
2018-12-31T01:53:09.649Z,4.53
2018-12-31T01:55:38.833Z,4.60
2018-12-31T01:58:08.353Z,4.60
2018-12-31T02:00:38.013Z,4.65
2018-12-31T02:03:07.527Z,4.60
2018-12-31T02:05:36.907Z,4.68
2018-12-31T02:08:06.419Z,4.76
2018-12-31T02:10:35.619Z,4.74
2018-12-31T02:13:05.601Z,4.63
2018-12-31T02:15:34.900Z,4.67
2018-12-31T02:18:04.427Z,4.69
2018-12-31T02:20:33.542Z,4.75
2018-12-31T02:23:03.037Z,4.67
2018-12-31T02:25:32.479Z,4.74
2018-12-31T02:28:01.818Z,4.71
2018-12-31T02:30:31.285Z,4.73
2018-12-31T02:33:00.690Z,4.78
2018-12-31T02:35:30.135Z,4.79
2018-12-31T02:37:59.296Z,4.77
2018-12-31T02:40:28.495Z,4.79
2018-12-31T02:42:57.684Z,4.79
2018-12-31T02:45:26.838Z,4.82
2018-12-31T02:47:56.256Z,4.85
2018-12-31T02:50:25.705Z,4.85
2018-12-31T02:52:55.148Z,4.94
2018-12-31T02:55:24.245Z,4.90
2018-12-31T02:57:53.365Z,4.84
2018-12-31T03:00:22.881Z,4.85
2018-12-31T03:02:52.044Z,4.88
2018-12-31T03:05:21.454Z,4.84
2018-12-31T03:07:50.699Z,4.90
2018-12-31T03:10:19.826Z,4.85
2018-12-31T03:12:49.358Z,4.98
2018-12-31T03:15:18.718Z,4.87
2018-12-31T03:17:48.322Z,4.83
2018-12-31T03:20:17.664Z,4.93
2018-12-31T03:22:47.306Z,4.90
2018-12-31T03:25:16.546Z,4.90
2018-12-31T03:27:45.679Z,4.91
2018-12-31T03:30:15.554Z,4.97
2018-12-31T03:32:45.000Z,4.93
2018-12-31T03:35:15.247Z,4.84
2018-12-31T03:37:44.806Z,4.89
2018-12-31T03:40:14.167Z,4.97
2018-12-31T03:42:43.273Z,4.89
2018-12-31T03:45:12.710Z,4.88
2018-12-31T03:47:42.101Z,4.90
2018-12-31T03:50:11.461Z,4.92
2018-12-31T03:52:40.660Z,4.94
2018-12-31T03:55:09.797Z,4.95
2018-12-31T03:57:39.212Z,4.99
2018-12-31T04:00:08.777Z,4.97
2018-12-31T04:02:38.214Z,4.96
2018-12-31T04:05:07.323Z,4.96
2018-12-31T04:07:36.922Z,4.91
2018-12-31T04:10:06.776Z,4.86
2018-12-31T04:12:36.142Z,4.95
2018-12-31T04:15:06.934Z,4.90
2018-12-31T04:17:36.050Z,4.92
2018-12-31T04:20:06.496Z,4.99
2018-12-31T04:22:35.674Z,4.94
2018-12-31T04:25:05.952Z,4.92
2018-12-31T04:27:35.870Z,5.03
2018-12-31T04:30:06.556Z,4.98
2018-12-31T04:32:36.022Z,5.07
2018-12-31T04:35:06.694Z,4.99
2018-12-31T04:37:35.792Z,4.97
2018-12-31T04:40:05.423Z,5.08
2018-12-31T04:42:34.904Z,4.95
2018-12-31T04:45:04.718Z,5.00
2018-12-31T04:47:33.924Z,4.99
2018-12-31T04:50:03.380Z,4.94
2018-12-31T04:52:32.509Z,5.00
2018-12-31T04:55:01.643Z,4.89
2018-12-31T04:57:30.892Z,4.96
2018-12-31T05:00:00.206Z,4.90
2018-12-31T05:02:29.325Z,4.97
2018-12-31T05:04:58.505Z,5.01
2018-12-31T05:07:27.700Z,4.96
2018-12-31T05:09:57.135Z,4.95
2018-12-31T05:12:26.326Z,4.84
2018-12-31T05:14:55.531Z,4.74
2018-12-31T05:17:24.933Z,4.75
2018-12-31T05:19:54.446Z,4.72
2018-12-31T05:22:23.778Z,4.64
2018-12-31T05:24:52.917Z,4.57
2018-12-31T05:27:22.097Z,4.57
2018-12-31T05:29:51.229Z,4.55
2018-12-31T05:32:20.733Z,4.55
2018-12-31T05:34:50.402Z,4.56
2018-12-31T05:37:19.826Z,4.56
2018-12-31T05:39:49.535Z,4.62
2018-12-31T05:42:18.952Z,4.60
2018-12-31T05:44:48.328Z,4.59
2018-12-31T05:47:17.564Z,4.66
2018-12-31T05:49:46.729Z,4.57
2018-12-31T05:52:16.134Z,4.53
2018-12-31T05:54:45.533Z,4.46
2018-12-31T05:57:14.676Z,4.40
2018-12-31T05:59:44.144Z,4.31
2018-12-31T06:02:13.630Z,4.30
2018-12-31T06:04:43.093Z,4.33
2018-12-31T06:07:12.238Z,4.24
2018-12-31T06:09:41.618Z,4.16
2018-12-31T06:12:10.791Z,4.23
2018-12-31T06:14:40.006Z,4.21
2018-12-31T06:17:09.395Z,4.21
2018-12-31T06:19:38.823Z,4.22
2018-12-31T06:22:08.011Z,4.19
2018-12-31T06:24:37.697Z,4.23
2018-12-31T06:27:07.133Z,4.19
2018-12-31T06:29:36.504Z,4.24
2018-12-31T06:32:06.087Z,4.22
2018-12-31T06:34:35.497Z,4.16
2018-12-31T06:37:05.965Z,4.16
2018-12-31T06:39:35.390Z,4.14
2018-12-31T06:42:05.629Z,4.15
2018-12-31T06:44:34.768Z,4.19
2018-12-31T06:47:04.257Z,4.12
2018-12-31T06:49:33.415Z,3.99
2018-12-31T06:52:02.833Z,3.94
2018-12-31T06:54:31.921Z,4.01
2018-12-31T06:57:01.363Z,4.06
2018-12-31T06:59:30.549Z,4.05
2018-12-31T07:01:59.839Z,4.06
2018-12-31T07:04:28.981Z,4.07
2018-12-31T07:06:59.453Z,4.07
2018-12-31T07:09:29.203Z,4.04
2018-12-31T07:11:58.357Z,4.07
2018-12-31T07:14:27.483Z,4.08
2018-12-31T07:16:56.654Z,4.16
2018-12-31T07:19:25.786Z,4.16
2018-12-31T07:21:55.188Z,4.09
2018-12-31T07:24:24.623Z,4.02
2018-12-31T07:26:53.834Z,3.98
2018-12-31T07:29:22.987Z,3.97
2018-12-31T07:31:52.909Z,3.97
2018-12-31T07:34:22.092Z,3.90
2018-12-31T07:36:51.549Z,4.00
2018-12-31T07:39:21.361Z,3.98
2018-12-31T07:41:50.470Z,3.93
2018-12-31T07:44:19.686Z,3.96
2018-12-31T07:46:49.147Z,4.03
2018-12-31T07:49:18.624Z,4.11
2018-12-31T07:51:47.812Z,4.15
2018-12-31T07:54:17.318Z,4.16
2018-12-31T07:56:46.435Z,4.17
2018-12-31T07:59:15.634Z,4.24
2018-12-31T08:01:45.062Z,4.25
2018-12-31T08:04:14.168Z,4.29
2018-12-31T08:06:43.404Z,4.24
2018-12-31T08:09:12.666Z,4.34
2018-12-31T08:11:41.822Z,4.43
2018-12-31T08:14:11.196Z,4.41
2018-12-31T08:16:40.333Z,4.33
2018-12-31T08:19:09.560Z,4.40
2018-12-31T08:21:39.012Z,4.46
2018-12-31T08:24:08.758Z,4.60
2018-12-31T08:26:37.987Z,4.62
2018-12-31T08:29:07.530Z,4.78
2018-12-31T08:31:37.015Z,4.85
2018-12-31T08:34:06.457Z,4.92
2018-12-31T08:36:35.583Z,4.99
2018-12-31T08:39:07.714Z,5.02
2018-12-31T08:41:36.984Z,5.13
2018-12-31T08:44:06.119Z,5.22
2018-12-31T08:46:35.254Z,5.22
2018-12-31T08:49:05.538Z,5.25
2018-12-31T08:51:34.658Z,5.29
2018-12-31T08:54:04.913Z,5.38
2018-12-31T08:56:34.101Z,5.15
2018-12-31T08:59:03.523Z,4.99
2018-12-31T09:01:32.682Z,5.12
2018-12-31T09:04:02.230Z,5.13
2018-12-31T09:06:31.385Z,5.08
2018-12-31T09:09:00.586Z,5.10
2018-12-31T09:11:30.123Z,5.07
2018-12-31T09:13:59.246Z,5.19
2018-12-31T09:16:28.414Z,5.26
2018-12-31T09:18:57.619Z,5.27
2018-12-31T09:21:27.246Z,5.21
2018-12-31T09:23:56.340Z,5.19
2018-12-31T09:26:25.856Z,5.31
2018-12-31T09:28:54.982Z,5.29
2018-12-31T09:31:24.513Z,5.28
2018-12-31T09:33:53.765Z,5.30
2018-12-31T09:36:22.907Z,5.21
2018-12-31T09:38:52.327Z,5.27
2018-12-31T09:41:21.473Z,5.24
2018-12-31T09:43:50.983Z,5.36
2018-12-31T09:46:20.402Z,5.24
2018-12-31T09:48:49.802Z,5.15
2018-12-31T09:51:19.248Z,5.25
2018-12-31T09:53:48.682Z,5.33
2018-12-31T09:56:17.816Z,5.18
2018-12-31T09:58:46.960Z,5.38
2018-12-31T10:01:16.436Z,5.44
2018-12-31T10:03:47.605Z,5.44
2018-12-31T10:06:16.640Z,5.30
2018-12-31T10:08:49.403Z,5.26
2018-12-31T10:11:16.683Z,5.34
2018-12-31T10:13:45.834Z,5.29
2018-12-31T10:16:15.250Z,5.23
2018-12-31T10:18:44.403Z,5.27
2018-12-31T10:21:13.602Z,5.42
2018-12-31T10:23:42.776Z,5.28
2018-12-31T10:26:11.930Z,5.29
2018-12-31T10:28:41.399Z,5.44
2018-12-31T10:31:10.529Z,5.49
2018-12-31T10:33:39.832Z,5.36
2018-12-31T10:36:09.298Z,5.47
2018-12-31T10:38:38.524Z,5.50
2018-12-31T10:41:07.937Z,5.54
2018-12-31T10:43:37.135Z,5.35
2018-12-31T10:46:07.151Z,5.28
2018-12-31T10:48:36.527Z,5.26
2018-12-31T10:51:08.016Z,5.39
2018-12-31T10:53:37.271Z,5.21
2018-12-31T10:56:06.757Z,5.39
2018-12-31T10:58:35.977Z,5.45
2018-12-31T11:01:05.578Z,5.53
2018-12-31T11:03:34.985Z,5.59
2018-12-31T11:06:05.452Z,5.57
2018-12-31T11:08:34.911Z,5.69
2018-12-31T11:11:05.324Z,5.53
2018-12-31T11:13:34.536Z,5.44
2018-12-31T11:16:04.822Z,5.32
2018-12-31T11:18:33.962Z,5.37
2018-12-31T11:21:03.124Z,5.28
2018-12-31T11:23:32.255Z,5.24
2018-12-31T11:26:01.392Z,5.10
2018-12-31T11:28:30.607Z,5.08
2018-12-31T11:30:59.818Z,5.13
2018-12-31T11:33:29.261Z,5.11
2018-12-31T11:35:58.859Z,5.09
2018-12-31T11:38:28.141Z,5.08
2018-12-31T11:40:57.556Z,5.11
2018-12-31T11:43:26.926Z,5.13
2018-12-31T11:45:56.361Z,5.03
2018-12-31T11:48:25.795Z,5.02
2018-12-31T11:50:54.963Z,4.99
2018-12-31T11:53:24.586Z,4.88
2018-12-31T11:55:53.957Z,4.80
2018-12-31T11:58:23.095Z,4.79
2018-12-31T12:00:52.365Z,4.68
2018-12-31T12:03:21.766Z,4.48
2018-12-31T12:05:51.272Z,4.37
2018-12-31T12:08:20.577Z,4.29
2018-12-31T12:10:49.742Z,4.35
2018-12-31T12:13:19.037Z,4.51
2018-12-31T12:15:48.527Z,4.54
2018-12-31T12:18:17.643Z,4.45
2018-12-31T12:20:46.979Z,4.45
2018-12-31T12:23:16.169Z,4.43
2018-12-31T12:25:45.293Z,4.42
2018-12-31T12:28:14.491Z,4.36
2018-12-31T12:30:43.633Z,4.29
2018-12-31T12:33:13.141Z,4.34
2018-12-31T12:35:42.349Z,4.33
2018-12-31T12:38:11.858Z,4.30
2018-12-31T12:40:40.992Z,4.36
2018-12-31T12:43:10.267Z,4.43
2018-12-31T12:45:39.392Z,4.41
2018-12-31T12:48:10.157Z,4.41
2018-12-31T12:50:40.034Z,4.54
2018-12-31T12:53:09.648Z,4.48
2018-12-31T12:55:38.758Z,4.42
2018-12-31T12:58:08.014Z,4.30
2018-12-31T13:00:37.139Z,4.36
2018-12-31T13:03:07.013Z,4.29
2018-12-31T13:05:36.180Z,4.43
2018-12-31T13:08:05.933Z,4.53
2018-12-31T13:10:35.196Z,4.41
2018-12-31T13:13:05.532Z,4.28
2018-12-31T13:15:34.740Z,4.33
2018-12-31T13:18:03.887Z,4.22
2018-12-31T13:20:33.088Z,4.25
2018-12-31T13:23:02.238Z,4.13
2018-12-31T13:25:31.749Z,4.07
2018-12-31T13:28:01.430Z,4.05
2018-12-31T13:30:30.540Z,4.10
2018-12-31T13:32:59.688Z,4.01
2018-12-31T13:35:28.933Z,3.96
2018-12-31T13:37:58.072Z,3.93
2018-12-31T13:40:27.481Z,3.89
2018-12-31T13:42:56.685Z,3.93
2018-12-31T13:45:25.835Z,3.96
2018-12-31T13:47:55.313Z,3.89
2018-12-31T13:50:24.515Z,3.75
2018-12-31T13:52:53.855Z,3.73
2018-12-31T13:55:23.055Z,3.64
2018-12-31T13:57:52.550Z,3.62
2018-12-31T14:00:21.711Z,3.68
2018-12-31T14:02:51.150Z,3.64
2018-12-31T14:05:20.872Z,3.59
2018-12-31T14:07:49.986Z,3.49
2018-12-31T14:10:19.317Z,3.48
2018-12-31T14:12:48.773Z,3.48
2018-12-31T14:15:18.454Z,3.38
2018-12-31T14:17:47.593Z,3.34
2018-12-31T14:20:16.797Z,3.40
2018-12-31T14:22:46.046Z,3.43
2018-12-31T14:25:15.587Z,3.36
2018-12-31T14:27:45.293Z,3.33
2018-12-31T14:30:14.403Z,3.24
2018-12-31T14:32:43.547Z,3.24
2018-12-31T14:35:15.535Z,3.22
2018-12-31T14:37:44.659Z,3.17
2018-12-31T14:40:13.802Z,3.13
2018-12-31T14:42:43.541Z,3.05
2018-12-31T14:45:12.654Z,3.02
2018-12-31T14:47:41.804Z,2.99
2018-12-31T14:50:11.108Z,2.97
2018-12-31T14:52:40.251Z,2.88
2018-12-31T14:55:09.912Z,2.79
2018-12-31T14:57:39.392Z,2.77
2018-12-31T15:00:12.035Z,2.76
2018-12-31T15:02:41.630Z,2.73
2018-12-31T15:05:10.782Z,2.73
2018-12-31T15:07:39.970Z,2.72
2018-12-31T15:10:09.118Z,2.67
2018-12-31T15:12:38.345Z,2.63
2018-12-31T15:15:08.595Z,2.64
2018-12-31T15:17:37.824Z,2.67
2018-12-31T15:20:09.619Z,2.71
2018-12-31T15:22:38.790Z,2.64
2018-12-31T15:25:07.926Z,2.66
2018-12-31T15:27:37.092Z,2.74
2018-12-31T15:30:08.974Z,2.68
2018-12-31T15:32:38.217Z,2.70
2018-12-31T15:35:07.708Z,2.73
2018-12-31T15:37:37.025Z,2.74
2018-12-31T15:40:07.974Z,2.75
2018-12-31T15:42:37.412Z,2.82
2018-12-31T15:45:07.801Z,2.85
2018-12-31T15:47:36.957Z,2.81
2018-12-31T15:50:12.849Z,2.74
2018-12-31T15:52:42.072Z,2.71
2018-12-31T15:55:11.393Z,2.72
2018-12-31T15:57:40.869Z,2.69
2018-12-31T16:00:10.635Z,2.71
2018-12-31T16:02:39.740Z,2.69
2018-12-31T16:05:09.699Z,2.70
2018-12-31T16:07:45.576Z,2.76
2018-12-31T16:10:10.055Z,2.89
2018-12-31T16:12:39.493Z,2.96
2018-12-31T16:15:09.200Z,3.03
2018-12-31T16:17:38.658Z,3.13
2018-12-31T16:20:07.895Z,3.22
2018-12-31T16:22:37.314Z,3.20
2018-12-31T16:25:06.484Z,3.25
2018-12-31T16:27:36.057Z,3.28
2018-12-31T16:30:08.081Z,3.39
2018-12-31T16:32:37.200Z,3.45
2018-12-31T16:35:06.458Z,3.47
2018-12-31T16:37:37.007Z,3.51
2018-12-31T16:40:06.820Z,3.59
2018-12-31T16:42:36.278Z,3.58
2018-12-31T16:45:07.483Z,3.62
2018-12-31T16:47:37.034Z,3.63
2018-12-31T16:50:08.086Z,3.66
2018-12-31T16:52:37.570Z,3.67
2018-12-31T16:55:06.765Z,3.63
2018-12-31T16:57:36.091Z,3.65
2018-12-31T17:00:07.370Z,3.68
2018-12-31T17:02:36.911Z,3.66
2018-12-31T17:05:07.177Z,3.63
2018-12-31T17:22:22.967Z,3.74
2018-12-31T17:37:29.147Z,3.58
2018-12-31T17:52:35.267Z,3.70
2018-12-31T18:07:41.087Z,3.67
2018-12-31T18:22:46.932Z,3.76
2018-12-31T18:37:52.692Z,3.79
2018-12-31T18:52:58.551Z,3.89
2018-12-31T19:08:05.529Z,3.93
2018-12-31T19:23:11.620Z,4.14
2018-12-31T19:38:17.370Z,4.17
2018-12-31T19:53:23.322Z,4.32
2018-12-31T20:08:29.588Z,4.33
2018-12-31T20:23:36.086Z,4.39
2018-12-31T20:38:44.275Z,4.25
2018-12-31T20:53:50.074Z,4.26
2018-12-31T21:08:56.105Z,4.32
2018-12-31T21:24:05.257Z,4.40
2018-12-31T21:39:11.416Z,4.59
2018-12-31T21:54:17.713Z,4.63
2018-12-31T22:09:23.810Z,4.71
2018-12-31T22:24:30.320Z,4.61
2018-12-31T22:39:36.318Z,4.66
2018-12-31T22:54:42.186Z,4.67
2018-12-31T23:09:48.455Z,4.79
2018-12-31T23:24:54.612Z,4.82
2018-12-31T23:40:00.375Z,4.86
2018-12-31T23:55:07.629Z,4.97
